ADDS METAR Data INFO
IDs: Format: Raw Decoded Include TAF

Data at: 2047 UTC 24 Jun 2018

KSHR 241953Z AUTO 34010KT 10SM FEW046 22/11 A3008 RMK AO2 SLP162 T02220111
KSHR 241853Z AUTO 35009KT 10SM FEW039 SCT055 SCT090 21/12 A3009 RMK AO2 SLP167 T02110117
KSHR 241753Z AUTO 31010KT 10SM OVC085 20/12 A3010 RMK AO2 SLP172 60000 T02000117 10211 20128 51009
KSHR 241653Z AUTO 32012KT 10SM BKN060 OVC075 18/11 A3009 RMK AO2 SLP171 T01830111
KSHR 241553Z AUTO 32013KT 10SM BKN049 17/11 A3008 RMK AO2 SLP167 T01720106
KSHR 241453Z AUTO 31016KT 10SM SCT040 SCT048 17/11 A3007 RMK AO2 SLP164 60000 T01720111 51012
KSHR 241353Z AUTO 31011KT 10SM SCT032 BKN045 OVC055 15/11 A3006 RMK AO2 SLP158 T01500111
KSHR 241253Z AUTO 30005KT 10SM SCT033 BKN050 BKN085 13/11 A3005 RMK AO2 RAB1154E10 SLP156 P0000 T01280111
KSHR 241209Z AUTO 29009KT 10SM -RA OVC032 13/11 A3003 RMK AO2 RAB1154 P0000 T01330106
KSHR 241153Z AUTO 28008KT 10SM BKN029 BKN041 13/11 A3003 RMK AO2 SLP148 60022 70035 T01330106 10133 20111 53006
KSHR 241053Z AUTO 26004KT 10SM SCT036 SCT110 12/10 A3002 RMK AO2 SLP142 T01170100
KSHR 240953Z AUTO 19005KT 10SM BKN039 BKN050 OVC065 12/11 A3001 RMK AO2 RAE42 SLP138 P0001 T01170111
KSHR 240853Z AUTO 23008KT 10SM -RA OVC060 12/11 A3001 RMK AO2 SLP142 P0014 60021 T01170106 50007
KSHR 240753Z AUTO 34005KT 10SM RA BKN049 OVC065 11/11 A3001 RMK AO2 RAB11 SLP151 P0007 T01110106
KSHR 240653Z AUTO 06003KT 10SM FEW070 SCT085 OVC110 12/10 A2999 RMK AO2 RAE0557 SLP136 P0000 T01220100 402220083
KSHR 240553Z AUTO 24007KT 10SM -RA BKN075 OVC090 12/10 A2999 RMK AO2 LTG DSNT NE SLP141 P0001 60003 T01220100 10183 20122 50016
KSHR 240453Z AUTO 30009KT 10SM -RA FEW050 OVC070 12/11 A3000 RMK AO2 RAB11 SLP146 P0002 T01220106
KSHR 240353Z AUTO 30017KT 10SM OVC065 14/09 A2999 RMK AO2 PK WND 29029/0254 LTG DSNT N SLP134 T01390094
KSHR 240253Z AUTO 29023G31KT 10SM FEW060 FEW110 14/09 A2993 RMK AO2 PK WND 29033/0228 LTG DSNT N AND NE SLP121 60000 T01390089 53020
KSHR 240241Z AUTO 29021G33KT 10SM FEW060 SCT100 SCT110 14/08 A2994 RMK AO2 PK WND 29033/0228 LTG DSNT NE AND NW T01390083
KSHR 240226Z AUTO 29022G31KT 10SM VCTS FEW050 SCT060 BKN100 16/09 A2994 RMK AO2 PK WND 29031/0225 LTG DSNT NW T01610089
KSHR 240153Z AUTO 24013KT 10SM FEW050 BKN120 17/09 A2991 RMK AO2 LTG DSNT W-N RAB07E22 SLP108 P0000 T01670089
KSHR 240053Z AUTO 27008KT 10SM BKN110 17/13 A2989 RMK AO2 LTG DSNT S-W SLP099 T01720133
KSHR 240030Z AUTO 24007KT 10SM OVC100 18/14 A2988 RMK AO2 LTG DSNT S-W T01830139
KSHR 240015Z AUTO 19004KT 10SM VCTS OVC110 18/14 A2988 RMK AO2 LTG DSNT S-W T01780139
KSHR 232353Z AUTO 22003KT 10SM FEW060 BKN100 OVC120 18/13 A2987 RMK AO2 RAB41E52 SLP098 P0000 60003 T01830133 10222 20144 55000
KSHR 232332Z AUTO 26004KT 10SM BKN100 BKN120 19/13 A2987 RMK AO2 T01940128
KSHR 232315Z AUTO 28004KT 10SM VCTS SCT110 20/12 A2987 RMK AO2 LTG DSNT SW T02000117
KSHR 232253Z AUTO 31004KT 10SM SCT110 22/12 A2986 RMK AO2 SLP087 T02170122
KSHR 232153Z AUTO 35008KT 10SM BKN120 21/12 A2986 RMK AO2 SLP087 T02110122
KSHR 232053Z AUTO 34006KT 10SM CLR 20/13 A2987 RMK AO2 LTG DSNT SW RAE20 SLP092 P0000 60003 T02000133 58017
KSHR 231953Z AUTO 24007KT 10SM -RA FEW060 BKN070 OVC090 15/12 A2990 RMK AO2 RAB1855E17B35 SLP113 P0003 T01500122
KSHR 231853Z AUTO 32007KT 10SM BKN070 BKN085 17/11 A2990 RMK AO2 RAE01 SLP105 P0000 T01720111
KSHR 231753Z AUTO 29011KT 10SM -RA OVC075 14/12 A2992 RMK AO2 RAE1656B27 SLP116 P0000 60007 T01440117 10172 20094 53007
KSHR 231653Z AUTO 30014KT 10SM -RA FEW040 BKN075 OVC085 15/12 A2992 RMK AO2 RAB25 SLP112 P0001 T01500122
KSHR 231553Z AUTO 29006KT 10SM OVC110 17/13 A2990 RMK AO2 RAE03 SLP099 P0000 T01670128
KSHR 231453Z AUTO 22004KT 10SM -RA FEW065 OVC090 14/12 A2990 RMK AO2 RAE08B40 SLP106 P0001 60006 T01390122 51017
KSHR 231353Z AUTO 30004KT 10SM -RA SCT080 OVC090 14/12 A2989 RMK AO2 RAB1254 SLP101 P0005 T01440122
KSHR 231253Z AUTO 29014KT 10SM BKN070 BKN090 OVC100 14/10 A2989 RMK AO2 SLP103 T01390100
KSHR 231153Z AUTO 31004KT 10SM CLR 09/07 A2984 RMK AO2 SLP093 70002 T00940072 10144 20083 55004
KSHR 231053Z AUTO 15004KT 10SM CLR 12/07 A2983 RMK AO2 SLP080 T01170072
KSHR 230953Z AUTO 17004KT 10SM CLR 11/08 A2984 RMK AO2 SLP083 T01110078
KSHR 230853Z AUTO 15006KT 10SM CLR 12/08 A2986 RMK AO2 SLP089 T01170083 58014